Paramount Helsinki — 2CWB3 — position and weather

sailwx.info

Track history (hours):
 
Tides and Currents Weather Stations Pressure Air Temp Water Temp Dewpoint Dewpoint Depression Visibility Wind Speed Wind Dir Waves Ship Positions

Paramount Helsinki

Last reported at 2018-Feb-19 01:16 UTC. Time now 2018-Feb-19 06:29 UTC.
Position N 55°33' W 000°55'.

Length 250 m; draft 11.6 m.

Type: Tanker. MMSI: 235076275.

Date/timePositionNaut miles runAvg speedWind from/ knotsBaromVisibWave heightAir tempDewpointWater temp
2018-Feb-19 01:16N 55°33' W 000°55'311.3
2018-Feb-19 00:58N 55°35' W 000°59'611.0
2018-Feb-19 00:28N 55°39' W 001°07'710.7
2018-Feb-18 23:49N 55°44' W 001°16'310.5
2018-Feb-18 23:30N 55°46' W 001°21'510.4
2018-Feb-18 23:00N 55°49' W 001°28'510.5
2018-Feb-18 22:30N 55°52' W 001°35'510.7
2018-Feb-18 22:00N 55°55' W 001°42'510.7
2018-Feb-18 21:30N 55°59' W 001°50'510.8
2018-Feb-18 21:00N 56°02' W 001°57'510.9
2018-Feb-18 20:30N 56°06' W 002°04'3 5.5
2018-Feb-18 20:00N 56°08' W 002°07'0 0.7
2018-Feb-18 19:30N 56°08' W 002°07'0 0.3
2018-Feb-18 19:00N 56°08' W 002°07'0 0.1
2018-Feb-18 18:30N 56°08' W 002°07'0 0.3
2018-Feb-18 18:00N 56°08' W 002°07'0 0.4
2018-Feb-18 17:30N 56°08' W 002°07'0 0.5
2018-Feb-18 17:00N 56°08' W 002°08'0 0.5
2018-Feb-18 16:30N 56°08' W 002°08'0 0.5
2018-Feb-18 16:00N 56°08' W 002°09'0 0.4
2018-Feb-18 15:30N 56°08' W 002°09'0 0.5
2018-Feb-18 15:00N 56°08' W 002°09'0 0.4
2018-Feb-18 14:30N 56°09' W 002°09'0 0.3
2018-Feb-18 14:00N 56°09' W 002°10'0 0.2
2018-Feb-18 13:30N 56°09' W 002°10'0 0.3
2018-Feb-18 13:00N 56°09' W 002°10'0 0.5
2018-Feb-18 12:30N 56°08' W 002°09'0 0.7
2018-Feb-18 12:00N 56°08' W 002°09'0 0.8
2018-Feb-18 11:30N 56°08' W 002°09'0 0.9
2018-Feb-18 11:00N 56°07' W 002°08'1 1.1
2018-Feb-18 10:30N 56°07' W 002°08'1 1.1
2018-Feb-18 10:00N 56°07' W 002°07'0 1.0
2018-Feb-18 09:30N 56°06' W 002°06'0 0.9
2018-Feb-18 09:00N 56°06' W 002°06'0 0.8
2018-Feb-18 08:30N 56°06' W 002°05'0 0.6
2018-Feb-18 08:00N 56°05' W 002°05'0 0.3
2018-Feb-18 07:30N 56°05' W 002°05'0 0.1
2018-Feb-18 07:00N 56°05' W 002°05'0 0.3
2018-Feb-18 06:30N 56°06' W 002°05'0 0.5
2018-Feb-18 06:00N 56°06' W 002°05'0 0.7
2018-Feb-18 05:30N 56°06' W 002°05'0 0.8
2018-Feb-18 05:00N 56°06' W 002°06'0 0.7
2018-Feb-18 04:30N 56°06' W 002°07'0 0.7
2018-Feb-18 04:00N 56°07' W 002°07'0 0.6
2018-Feb-18 03:30N 56°07' W 002°07'0 0.5
2018-Feb-18 03:00N 56°07' W 002°08'0 0.4
2018-Feb-18 02:30N 56°07' W 002°08'0 0.3
2018-Feb-18 02:00N 56°07' W 002°08'0 0.2
2018-Feb-18 01:30N 56°07' W 002°08'0 0.1
2018-Feb-18 01:00N 56°07' W 002°08'0 0.2
2018-Feb-18 00:30N 56°07' W 002°08'0 0.4
2018-Feb-18 00:00N 56°07' W 002°08'0 0.6
2018-Feb-17 23:30N 56°07' W 002°08'0 0.8
2018-Feb-17 23:00N 56°06' W 002°07'0 0.8
2018-Feb-17 22:30N 56°06' W 002°07'0 0.8
2018-Feb-17 22:00N 56°06' W 002°07'0 0.8
2018-Feb-17 21:30N 56°05' W 002°06'0 0.8
2018-Feb-17 21:00N 56°05' W 002°06'0 0.7
2018-Feb-17 20:30N 56°05' W 002°06'0 0.5
2018-Feb-17 20:00N 56°05' W 002°05'0 0.2
2018-Feb-17 19:30N 56°04' W 002°05'0 0.2
2018-Feb-17 19:00N 56°04' W 002°06'0 0.3
2018-Feb-17 18:30N 56°04' W 002°06'0 0.4
2018-Feb-17 18:00N 56°05' W 002°06'0 0.4
2018-Feb-17 17:30N 56°05' W 002°07'0 0.6
2018-Feb-17 17:00N 56°05' W 002°07'0 0.7
2018-Feb-17 16:30N 56°05' W 002°07'0 0.9
2018-Feb-17 16:00N 56°05' W 002°08'0 0.9
2018-Feb-17 15:30N 56°06' W 002°08'0 1.0
2018-Feb-17 15:00N 56°06' W 002°09'0 0.9
2018-Feb-17 14:30N 56°06' W 002°10'0 0.7
2018-Feb-17 14:00N 56°07' W 002°10'0 0.8
2018-Feb-17 13:30N 56°07' W 002°11'1 1.5
2018-Feb-17 13:00N 56°07' W 002°12'3 6.7
2018-Feb-17 12:30N 56°09' W 002°07'4 7.7
2018-Feb-17 12:00N 56°11' W 002°01'5 9.5
2018-Feb-17 11:30N 56°14' W 001°54'0 0.5
2018-Feb-17 11:00N 56°14' W 001°54'0 0.9
2018-Feb-17 10:30N 56°14' W 001°54'1 1.1
2018-Feb-17 10:00N 56°13' W 001°55'1 1.3
2018-Feb-17 09:30N 56°13' W 001°55'1 1.4
2018-Feb-17 09:00N 56°12' W 001°56'1 1.4
2018-Feb-17 08:30N 56°11' W 001°56'1 1.4
2018-Feb-17 08:00N 56°11' W 001°56'1 1.3
2018-Feb-17 07:30N 56°10' W 001°57'1 1.2
2018-Feb-17 07:00N 56°10' W 001°57'1 1.1
2018-Feb-17 06:30N 56°09' W 001°58'0 1.0
2018-Feb-17 06:00N 56°09' W 001°59'0 1.0
2018-Feb-17 05:30N 56°09' W 001°59'0 0.9
2018-Feb-17 05:00N 56°08' W 002°00'0 1.0
2018-Feb-17 04:30N 56°08' W 002°01'1 1.0
2018-Feb-17 04:00N 56°08' W 002°02'1 1.1
2018-Feb-17 03:30N 56°08' W 002°03'1 1.0
2018-Feb-17 03:00N 56°08' W 002°04'0 0.9
2018-Feb-17 02:30N 56°08' W 002°04'1 1.0
2018-Feb-17 02:00N 56°08' W 002°05'1 1.2
2018-Feb-17 01:30N 56°07' W 002°06'0 0.4
2018-Feb-17 01:00N 56°07' W 002°06'2 4.2
2018-Feb-17 00:30N 56°09' W 002°06'3 6.1
2018-Feb-17 00:00N 56°12' W 002°05'1 1.9
2018-Feb-16 23:30N 56°13' W 002°05'1 1.1
2018-Feb-16 23:00N 56°13' W 002°06'1 1.3
2018-Feb-16 22:30N 56°12' W 002°06'1 1.5
2018-Feb-16 22:00N 56°11' W 002°06'1 1.7
2018-Feb-16 21:30N 56°10' W 002°06'1 1.8
2018-Feb-16 21:00N 56°10' W 002°06'1 1.8
2018-Feb-16 20:30N 56°09' W 002°06'1 1.6
2018-Feb-16 20:00N 56°08' W 002°06'1 1.4
2018-Feb-16 19:30N 56°07' W 002°06'1 1.3
2018-Feb-16 19:00N 56°06' W 002°06'1 1.1
2018-Feb-16 18:30N 56°06' W 002°06'0 0.8
2018-Feb-16 18:00N 56°06' W 002°07'0 0.8
2018-Feb-16 17:30N 56°05' W 002°07'0 0.5
2018-Feb-16 17:00N 56°05' W 002°07'0 0.4
2018-Feb-16 16:30N 56°05' W 002°08'0 0.6
2018-Feb-16 16:00N 56°05' W 002°08'0 0.6
2018-Feb-16 15:30N 56°05' W 002°09'0 0.7
2018-Feb-16 15:00N 56°05' W 002°09'0 0.8
2018-Feb-16 14:30N 56°05' W 002°10'0 0.7
2018-Feb-16 14:00N 56°05' W 002°11'0 0.6
2018-Feb-16 13:30N 56°05' W 002°11'0 0.7
2018-Feb-16 13:00N 56°06' W 002°11'0 0.6
2018-Feb-16 12:30N 56°06' W 002°12'0 0.6
2018-Feb-16 12:00N 56°06' W 002°12'0 0.4
2018-Feb-16 11:30N 56°06' W 002°13'0 0.4
2018-Feb-16 11:00N 56°06' W 002°13'0 0.5
2018-Feb-16 10:30N 56°06' W 002°13'0 0.6
2018-Feb-16 10:00N 56°05' W 002°14'0 0.6
2018-Feb-16 09:30N 56°05' W 002°14'0 0.8
2018-Feb-16 09:00N 56°05' W 002°15'0 0.8
2018-Feb-16 08:30N 56°05' W 002°15'0 0.7
2018-Feb-16 08:00N 56°04' W 002°16'0 0.7
2018-Feb-16 07:30N 56°04' W 002°16'0 0.8
2018-Feb-16 07:00N 56°04' W 002°17'0 0.9
2018-Feb-16 06:30N 56°04' W 002°18'1 1.1
2018-Feb-16 06:00N 56°04' W 002°19'1 1.3
2018-Feb-16 05:30N 56°04' W 002°20'1 1.4
2018-Feb-16 05:00N 56°04' W 002°21'1 1.4
2018-Feb-16 04:30N 56°05' W 002°22'1 1.5
2018-Feb-16 04:00N 56°05' W 002°23'1 1.5
2018-Feb-16 03:30N 56°05' W 002°25'1 1.4
2018-Feb-16 03:00N 56°05' W 002°26'1 1.3
2018-Feb-16 02:30N 56°06' W 002°27'1 1.1
2018-Feb-16 02:00N 56°06' W 002°28'0 0.8
2018-Feb-16 01:30N 56°06' W 002°28'1 1.9
2018-Feb-16 01:00N 56°07' W 002°30'2 4.9
2018-Feb-16 00:30N 56°07' W 002°34'610.9
2018-Feb-16 00:00N 56°07' W 002°44'511.0
2018-Feb-15 23:30N 56°06' W 002°54'611.2
2018-Feb-15 23:00N 56°03' W 003°02'4 7.6
2018-Feb-15 22:30N 56°03' W 003°09'4 7.1
2018-Feb-15 22:00N 56°02' W 003°15'3 6.8
2018-Feb-15 21:30N 56°01' W 003°21'1 1.1
2018-Feb-15 21:00N 56°00' W 003°22'0 0.0
2018-Feb-15 20:28N 56°00' W 003°22'0 0.0
2018-Feb-15 19:58N 56°00' W 003°22'0 0.0
2018-Feb-15 19:28N 56°00' W 003°22'0 0.0
2018-Feb-15 16:43N 56°00' W 003°22'0 0.0
2018-Feb-15 16:25N 56°00' W 003°22'0 0.0
2018-Feb-15 16:00N 56°00' W 003°22'0 0.0
2018-Feb-15 15:24N 56°00' W 003°22'0 0.0
2018-Feb-15 13:42N 56°00' W 003°22'0 0.0
2018-Feb-15 13:27N 56°00' W 003°22'0 0.0
2018-Feb-15 12:54N 56°00' W 003°22'0 0.0
2018-Feb-15 12:24N 56°00' W 003°22'0 0.0
2018-Feb-15 11:18N 56°00' W 003°22'0 0.0
2018-Feb-15 10:48N 56°00' W 003°22'0 0.0
2018-Feb-15 10:24N 56°00' W 003°22'0 0.0
2018-Feb-15 09:54N 56°00' W 003°22'0 0.0
2018-Feb-15 09:30N 56°00' W 003°22'0 0.0
2018-Feb-15 09:00N 56°00' W 003°22'0 0.0
2018-Feb-15 08:12N 56°00' W 003°22'0 0.0
2018-Feb-15 07:06N 56°00' W 003°22'0 0.0
2018-Feb-15 07:00N 56°00' W 003°22'0 0.0
2018-Feb-15 06:18N 56°00' W 003°22'0 0.0
2018-Feb-15 06:00N 56°00' W 003°22'0 0.0
2018-Feb-15 05:24N 56°00' W 003°22'0 0.0
2018-Feb-15 04:36N 56°00' W 003°22'0 0.0
2018-Feb-15 04:24N 56°00' W 003°22'0 0.0
2018-Feb-15 04:00N 56°00' W 003°22'0 0.0
2018-Feb-15 03:30N 56°00' W 003°22'0 0.0
2018-Feb-15 02:48N 56°00' W 003°22'0 0.0
2018-Feb-15 02:30N 56°00' W 003°22'0 0.0
2018-Feb-15 01:48N 56°00' W 003°22'0 0.0
2018-Feb-15 01:21N 56°00' W 003°22'0 0.0
2018-Feb-15 00:54N 56°00' W 003°22'0 0.0
2018-Feb-15 00:06N 56°00' W 003°22'0 0.0
2018-Feb-14 21:27N 56°00' W 003°22'0 0.1
2018-Feb-14 21:01N 56°00' W 003°22'1 1.7
2018-Feb-14 20:31N 56°01' W 003°20'3 5.4
2018-Feb-14 20:00N 56°02' W 003°16'5 9.7
2018-Feb-14 19:31N 56°04' W 003°08'5 9.2
2018-Feb-14 19:01N 56°04' W 002°60'3 5.0
2018-Feb-14 18:30N 56°05' W 002°56'3 6.1
2018-Feb-14 18:01N 56°07' W 002°51'3 5.8
2018-Feb-14 17:31N 56°08' W 002°46'3 5.1
2018-Feb-14 17:01N 56°09' W 002°42'2 4.1
2018-Feb-14 16:31N 56°08' W 002°38'2 4.3
2018-Feb-14 16:01N 56°09' W 002°34'3 5.2
2018-Feb-14 15:31N 56°09' W 002°30'2 4.7
2018-Feb-14 15:01N 56°11' W 002°26'1 2.2
2018-Feb-14 14:31N 56°11' W 002°24'1 2.5
2018-Feb-14 14:00N 56°10' W 002°23'1 2.2
2018-Feb-14 13:31N 56°09' W 002°21'1 2.4
2018-Feb-14 13:01N 56°08' W 002°20'2 4.5
2018-Feb-14 12:31N 56°08' W 002°16'2 4.1
2018-Feb-14 12:01N 56°10' W 002°15'1 2.6
2018-Feb-14 11:31N 56°11' W 002°15'2 3.1
2018-Feb-14 11:00N 56°13' W 002°14'1 2.5
2018-Feb-14 10:30N 56°11' W 002°15'1 2.5
2018-Feb-14 10:01N 56°10' W 002°15'1 2.6
2018-Feb-14 09:30N 56°09' W 002°15'2 3.3
2018-Feb-14 09:01N 56°08' W 002°18'1 2.3
2018-Feb-14 08:31N 56°07' W 002°18'2 3.8
2018-Feb-14 08:01N 56°09' W 002°17'3 5.5
2018-Feb-14 07:31N 56°11' W 002°14'3 5.0
2018-Feb-14 07:00N 56°13' W 002°11'1 2.1
2018-Feb-14 06:30N 56°12' W 002°10'1 2.4
2018-Feb-14 06:01N 56°11' W 002°11'1 2.1
2018-Feb-14 05:31N 56°10' W 002°11'1 1.8
2018-Feb-14 05:01N 56°09' W 002°11'1 1.6
2018-Feb-14 04:30N 56°08' W 002°12'1 1.6
2018-Feb-14 04:01N 56°07' W 002°12'1 1.5
2018-Feb-14 03:31N 56°06' W 002°13'1 1.1
2018-Feb-14 03:01N 56°06' W 002°13'0 1.0
2018-Feb-14 02:30N 56°06' W 002°14'1 1.1
2018-Feb-14 02:01N 56°05' W 002°15'1 1.0
2018-Feb-14 01:30N 56°05' W 002°16'1 1.3
2018-Feb-14 01:01N 56°05' W 002°17'1 2.0
2018-Feb-14 00:31N 56°06' W 002°18'3 6.7
2018-Feb-14 00:01N 56°09' W 002°21'2 4.3
2018-Feb-13 23:30N 56°11' W 002°22'1 1.3
2018-Feb-13 23:01N 56°10' W 002°22'1 1.4
2018-Feb-13 22:30N 56°09' W 002°22'1 1.5
2018-Feb-13 22:01N 56°09' W 002°21'1 1.6
2018-Feb-13 21:30N 56°08' W 002°21'1 1.8
2018-Feb-13 21:01N 56°07' W 002°20'1 2.0
2018-Feb-13 20:31N 56°06' W 002°19'2 4.9
2018-Feb-13 20:00N 56°08' W 002°17'3 6.3
2018-Feb-13 19:30N 56°11' W 002°15'1 1.1
2018-Feb-13 19:01N 56°12' W 002°14'1 1.7
2018-Feb-13 18:31N 56°11' W 002°14'1 1.6
2018-Feb-13 18:00N 56°10' W 002°15'1 1.5
2018-Feb-13 17:31N 56°09' W 002°15'1 1.5
2018-Feb-13 17:00N 56°09' W 002°16'1 1.4
2018-Feb-13 16:30N 56°08' W 002°16'1 1.4
2018-Feb-13 16:01N 56°07' W 002°16'2 4.5
2018-Feb-13 15:31N 56°07' W 002°12'0 0.1
2018-Feb-13 15:01N 56°07' W 002°12'0 0.6
2018-Feb-13 14:31N 56°07' W 002°12'0 0.9
2018-Feb-13 14:01N 56°07' W 002°13'0 0.9
2018-Feb-13 13:30N 56°07' W 002°14'1 1.1
2018-Feb-13 13:01N 56°07' W 002°15'1 1.8
2018-Feb-13 12:31N 56°08' W 002°16'0 0.7
2018-Feb-13 12:01N 56°08' W 002°16'1 1.0
2018-Feb-13 11:30N 56°07' W 002°17'1 1.4
2018-Feb-13 11:01N 56°07' W 002°18'1 1.6
2018-Feb-13 10:31N 56°06' W 002°19'2 5.0
2018-Feb-13 10:00N 56°09' W 002°19'2 5.0
2018-Feb-13 09:30N 56°11' W 002°19'1 1.3
2018-Feb-13 09:00N 56°11' W 002°21'2 3.0
2018-Feb-13 08:31N 56°10' W 002°21'2 3.3
2018-Feb-13 08:00N 56°08' W 002°21'1 2.7
2018-Feb-13 07:31N 56°07' W 002°19'2 3.1
2018-Feb-13 07:01N 56°09' W 002°21'2 4.8
2018-Feb-13 06:31N 56°11' W 002°23'0 0.2
2018-Feb-13 06:00N 56°11' W 002°23'2 3.2
2018-Feb-13 05:31N 56°10' W 002°21'1 2.8
2018-Feb-13 05:00N 56°08' W 002°19'1 2.7
2018-Feb-13 04:31N 56°08' W 002°18'1 2.2
2018-Feb-13 04:00N 56°07' W 002°16'2 4.0
2018-Feb-13 03:31N 56°08' W 002°19'3 6.8
2018-Feb-13 03:00N 56°09' W 002°24'0 0.9
2018-Feb-13 02:31N 56°09' W 002°24'1 1.5
2018-Feb-13 02:00N 56°09' W 002°23'1 1.7
2018-Feb-13 01:30N 56°08' W 002°22'1 1.8
2018-Feb-13 01:01N 56°07' W 002°21'1 1.6
2018-Feb-13 00:31N 56°07' W 002°20'0 0.9
2018-Feb-13 00:00N 56°07' W 002°21'3 6.1
2018-Feb-12 23:31N 56°10' W 002°24'1 1.3
2018-Feb-12 23:01N 56°09' W 002°23'1 1.6
2018-Feb-12 22:30N 56°09' W 002°22'1 2.0
2018-Feb-12 22:01N 56°08' W 002°22'1 2.2
2018-Feb-12 21:31N 56°08' W 002°20'3 6.6
2018-Feb-12 21:01N 56°11' W 002°17'0 0.9
2018-Feb-12 20:31N 56°11' W 002°18'1 1.2
2018-Feb-12 20:01N 56°10' W 002°19'0 0.6
2018-Feb-12 19:30N 56°11' W 002°19'1 1.3
2018-Feb-12 19:01N 56°10' W 002°20'1 1.4
2018-Feb-12 18:30N 56°09' W 002°20'1 1.4
2018-Feb-12 18:01N 56°09' W 002°20'1 1.6
2018-Feb-12 17:31N 56°08' W 002°20'1 1.8
2018-Feb-12 17:01N 56°07' W 002°20'1 1.7
2018-Feb-12 16:31N 56°06' W 002°20'2 3.4
2018-Feb-12 16:00N 56°06' W 002°18'4 8.4
2018-Feb-12 15:31N 56°05' W 002°10'1 1.8
2018-Feb-12 15:01N 56°06' W 002°11'1 2.1
2018-Feb-12 14:31N 56°06' W 002°13'1 2.2
2018-Feb-12 14:01N 56°06' W 002°15'1 2.2
2018-Feb-12 13:31N 56°07' W 002°17'1 2.4
2018-Feb-12 13:01N 56°07' W 002°19'2 3.2
2018-Feb-12 12:30N 56°09' W 002°18'3 6.2
2018-Feb-12 12:01N 56°11' W 002°15'0 0.3
2018-Feb-12 11:30N 56°11' W 002°15'1 1.7
2018-Feb-12 11:00N 56°10' W 002°16'1 1.7
2018-Feb-12 10:30N 56°10' W 002°17'1 1.7
2018-Feb-12 10:01N 56°09' W 002°18'1 1.8
2018-Feb-12 09:31N 56°08' W 002°18'1 1.7
2018-Feb-12 09:01N 56°08' W 002°19'2 4.2
2018-Feb-12 08:30N 56°09' W 002°16'2 4.9
2018-Feb-12 08:01N 56°11' W 002°13'1 2.2
2018-Feb-12 07:31N 56°12' W 002°13'1 2.6
2018-Feb-12 07:00N 56°11' W 002°15'1 2.3
2018-Feb-12 06:31N 56°10' W 002°16'1 2.2
2018-Feb-12 06:01N 56°09' W 002°17'1 2.2
2018-Feb-12 05:30N 56°08' W 002°18'1 1.7
2018-Feb-12 05:00N 56°07' W 002°19'3 5.4
2018-Feb-12 04:30N 56°09' W 002°16'3 6.0
2018-Feb-12 04:01N 56°12' W 002°12'1 2.5
2018-Feb-12 03:30N 56°12' W 002°11'1 2.2
2018-Feb-12 03:00N 56°12' W 002°12'1 2.1
2018-Feb-12 02:30N 56°11' W 002°13'1 2.0
2018-Feb-12 02:01N 56°10' W 002°15'1 2.0
2018-Feb-12 01:30N 56°10' W 002°16'1 2.0
2018-Feb-12 01:01N 56°09' W 002°18'1 2.0
2018-Feb-12 00:30N 56°09' W 002°19'1 2.3
2018-Feb-12 00:01N 56°08' W 002°18'3 5.1
2018-Feb-11 23:31N 56°09' W 002°15'1 2.2
2018-Feb-11 23:00N 56°10' W 002°13'1 1.7
2018-Feb-11 22:31N 56°10' W 002°15'1 1.7
2018-Feb-11 22:00N 56°09' W 002°16'1 1.8
2018-Feb-11 21:30N 56°09' W 002°17'1 1.7
2018-Feb-11 21:01N 56°08' W 002°19'1 1.6
2018-Feb-11 20:30N 56°08' W 002°20'1 2.0
2018-Feb-11 20:00N 56°07' W 002°18'3 5.4
2018-Feb-11 19:31N 56°09' W 002°14'2 3.7
2018-Feb-11 19:00N 56°09' W 002°11'1 1.7
2018-Feb-11 18:31N 56°09' W 002°12'1 1.7
2018-Feb-11 18:01N 56°08' W 002°13'1 1.7
2018-Feb-11 17:31N 56°08' W 002°15'1 1.6
2018-Feb-11 17:00N 56°08' W 002°16'1 1.9
2018-Feb-11 16:30N 56°07' W 002°17'1 2.3
2018-Feb-11 16:01N 56°06' W 002°18'3 6.8
2018-Feb-11 15:30N 56°05' W 002°12'1 2.2
2018-Feb-11 15:00N 56°04' W 002°10'1 2.0
2018-Feb-11 14:30N 56°04' W 002°12'1 1.9
2018-Feb-11 14:00N 56°03' W 002°12'1 2.2
2018-Feb-11 13:30N 56°04' W 002°12'1 2.4
2018-Feb-11 13:00N 56°05' W 002°14'1 2.3
2018-Feb-11 12:30N 56°06' W 002°15'1 2.3
2018-Feb-11 12:01N 56°07' W 002°16'1 2.1
2018-Feb-11 11:30N 56°08' W 002°17'2 4.7
2018-Feb-11 11:01N 56°09' W 002°13'1 1.7
2018-Feb-11 10:30N 56°10' W 002°12'1 1.4
2018-Feb-11 10:01N 56°10' W 002°13'1 1.3
2018-Feb-11 09:31N 56°09' W 002°14'1 1.3
2018-Feb-11 09:00N 56°09' W 002°15'1 1.3
2018-Feb-11 08:30N 56°09' W 002°16'1 1.4
2018-Feb-11 08:01N 56°09' W 002°18'1 1.5
2018-Feb-11 07:30N 56°08' W 002°18'2 3.9
2018-Feb-11 07:00N 56°06' W 002°17'2 4.2
2018-Feb-11 06:30N 56°04' W 002°16'1 1.9
2018-Feb-11 06:01N 56°05' W 002°17'1 1.8
2018-Feb-11 05:31N 56°06' W 002°18'1 1.8
2018-Feb-11 05:00N 56°07' W 002°18'1 1.9
2018-Feb-11 04:30N 56°08' W 002°19'1 1.9
2018-Feb-11 04:01N 56°09' W 002°18'2 3.9
2018-Feb-11 03:30N 56°07' W 002°16'3 6.3
2018-Feb-11 03:01N 56°05' W 002°12'2 3.0
2018-Feb-11 02:30N 56°04' W 002°09'1 2.2
2018-Feb-11 02:01N 56°05' W 002°11'1 2.2
2018-Feb-11 01:31N 56°06' W 002°13'1 2.1
2018-Feb-11 01:00N 56°06' W 002°14'1 1.6
2018-Feb-11 00:31N 56°07' W 002°15'1 1.1
2018-Feb-11 00:01N 56°07' W 002°16'0 0.4
2018-Feb-10 23:30N 56°07' W 002°16'0 0.1
2018-Feb-10 23:00N 56°07' W 002°16'0 0.2
2018-Feb-10 22:31N 56°07' W 002°16'0 0.3
2018-Feb-10 22:01N 56°07' W 002°16'0 0.3
2018-Feb-10 21:30N 56°07' W 002°15'0 0.5
2018-Feb-10 21:01N 56°07' W 002°15'0 0.6
2018-Feb-10 20:31N 56°07' W 002°15'0 0.7
2018-Feb-10 20:01N 56°06' W 002°15'0 0.6
2018-Feb-10 19:31N 56°06' W 002°15'0 0.9
2018-Feb-10 19:01N 56°06' W 002°14'0 0.9
2018-Feb-10 18:31N 56°05' W 002°13'0 0.8
2018-Feb-10 18:00N 56°05' W 002°13'0 0.6
2018-Feb-10 17:31N 56°05' W 002°13'0 0.2
2018-Feb-10 17:01N 56°05' W 002°13'0 0.4
2018-Feb-10 16:31N 56°05' W 002°13'0 0.5
2018-Feb-10 16:01N 56°05' W 002°14'0 0.7
2018-Feb-10 15:30N 56°05' W 002°14'1 1.2
2018-Feb-10 15:00N 56°06' W 002°15'1 1.1
2018-Feb-10 14:31N 56°06' W 002°16'1 1.0
2018-Feb-10 14:01N 56°06' W 002°17'1 1.2
2018-Feb-10 13:30N 56°06' W 002°18'0 1.0
2018-Feb-10 13:01N 56°06' W 002°19'1 1.5
2018-Feb-10 12:31N 56°07' W 002°19'3 5.4
2018-Feb-10 12:01N 56°10' W 002°18'3 6.1
2018-Feb-10 11:31N 56°12' W 002°14'0 0.9
2018-Feb-10 11:01N 56°12' W 002°14'1 1.3
2018-Feb-10 10:31N 56°11' W 002°15'1 1.4
2018-Feb-10 10:00N 56°11' W 002°15'1 1.6
2018-Feb-10 09:31N 56°10' W 002°16'1 1.7
2018-Feb-10 09:01N 56°09' W 002°17'1 1.7
2018-Feb-10 08:30N 56°09' W 002°18'1 2.8
2018-Feb-10 08:01N 56°10' W 002°20'1 1.1
2018-Feb-10 07:31N 56°10' W 002°21'1 1.9
2018-Feb-10 07:00N 56°09' W 002°20'1 2.0
2018-Feb-10 06:31N 56°08' W 002°19'1 1.9
2018-Feb-10 06:01N 56°07' W 002°18'0 0.6
2018-Feb-10 05:30N 56°08' W 002°17'2 4.3
2018-Feb-10 05:01N 56°10' W 002°17'1 2.7
2018-Feb-10 04:31N 56°11' W 002°18'1 2.7
2018-Feb-10 04:00N 56°10' W 002°17'1 2.2
2018-Feb-10 03:31N 56°09' W 002°17'1 1.8
2018-Feb-10 03:01N 56°08' W 002°16'1 1.4
2018-Feb-10 02:31N 56°07' W 002°16'1 1.4
2018-Feb-10 02:01N 56°07' W 002°15'2 3.5
2018-Feb-10 01:30N 56°07' W 002°12'1 1.4
2018-Feb-10 01:00N 56°07' W 002°11'1 1.6
2018-Feb-10 00:31N 56°07' W 002°12'1 1.5
2018-Feb-10 00:00N 56°07' W 002°14'1 1.4
2018-Feb-09 23:30N 56°07' W 002°15'1 1.6
2018-Feb-09 23:00N 56°07' W 002°16'0 1.6
2018-Feb-09 22:46N 56°07' W 002°17'0 1.7
2018-Feb-09 22:31N 56°07' W 002°17'2 1.7
2018-Feb-09 21:31N 56°08' W 002°20'1 1.5
2018-Feb-09 20:31N 56°09' W 002°22'1 1.8
2018-Feb-09 20:01N 56°10' W 002°24'3 1.2
2018-Feb-09 17:01N 56°07' W 002°28'3 1.0
2018-Feb-09 13:31N 56°05' W 002°33'3 6.4
2018-Feb-09 13:01N 56°05' W 002°27'1111.4
2018-Feb-09 12:01N 56°03' W 002°07'  
Track history (hours):
 
Tides and Currents Weather Stations Pressure Air Temp Water Temp Dewpoint Dewpoint Depression Visibility Wind Speed Wind Dir Waves Ship Positions

Paramount Helsinki

Last reported at 2018-Feb-19 01:16 UTC. Time now 2018-Feb-19 06:29 UTC.
Position N 55°33' W 000°55'.

Length 250 m; draft 11.6 m.

Type: Tanker. MMSI: 235076275.

Date/timePositionNaut miles runAvg speedWind from/ knotsBaromVisibWave heightAir tempDewpointWater temp
2018-Feb-19 01:16N 55°33' W 000°55'311.3
2018-Feb-19 00:58N 55°35' W 000°59'611.0
2018-Feb-19 00:28N 55°39' W 001°07'710.7
2018-Feb-18 23:49N 55°44' W 001°16'310.5
2018-Feb-18 23:30N 55°46' W 001°21'510.4
2018-Feb-18 23:00N 55°49' W 001°28'510.5
2018-Feb-18 22:30N 55°52' W 001°35'510.7
2018-Feb-18 22:00N 55°55' W 001°42'510.7
2018-Feb-18 21:30N 55°59' W 001°50'510.8
2018-Feb-18 21:00N 56°02' W 001°57'510.9
2018-Feb-18 20:30N 56°06' W 002°04'3 5.5
2018-Feb-18 20:00N 56°08' W 002°07'0 0.7
2018-Feb-18 19:30N 56°08' W 002°07'0 0.3
2018-Feb-18 19:00N 56°08' W 002°07'0 0.1
2018-Feb-18 18:30N 56°08' W 002°07'0 0.3
2018-Feb-18 18:00N 56°08' W 002°07'0 0.4
2018-Feb-18 17:30N 56°08' W 002°07'0 0.5
2018-Feb-18 17:00N 56°08' W 002°08'0 0.5
2018-Feb-18 16:30N 56°08' W 002°08'0 0.5
2018-Feb-18 16:00N 56°08' W 002°09'0 0.4
2018-Feb-18 15:30N 56°08' W 002°09'0 0.5
2018-Feb-18 15:00N 56°08' W 002°09'0 0.4
2018-Feb-18 14:30N 56°09' W 002°09'0 0.3
2018-Feb-18 14:00N 56°09' W 002°10'0 0.2
2018-Feb-18 13:30N 56°09' W 002°10'0 0.3
2018-Feb-18 13:00N 56°09' W 002°10'0 0.5
2018-Feb-18 12:30N 56°08' W 002°09'0 0.7
2018-Feb-18 12:00N 56°08' W 002°09'0 0.8
2018-Feb-18 11:30N 56°08' W 002°09'0 0.9
2018-Feb-18 11:00N 56°07' W 002°08'1 1.1
2018-Feb-18 10:30N 56°07' W 002°08'1 1.1
2018-Feb-18 10:00N 56°07' W 002°07'0 1.0
2018-Feb-18 09:30N 56°06' W 002°06'0 0.9
2018-Feb-18 09:00N 56°06' W 002°06'0 0.8
2018-Feb-18 08:30N 56°06' W 002°05'0 0.6
2018-Feb-18 08:00N 56°05' W 002°05'0 0.3
2018-Feb-18 07:30N 56°05' W 002°05'0 0.1
2018-Feb-18 07:00N 56°05' W 002°05'0 0.3
2018-Feb-18 06:30N 56°06' W 002°05'0 0.5
2018-Feb-18 06:00N 56°06' W 002°05'0 0.7
2018-Feb-18 05:30N 56°06' W 002°05'0 0.8
2018-Feb-18 05:00N 56°06' W 002°06'0 0.7
2018-Feb-18 04:30N 56°06' W 002°07'0 0.7
2018-Feb-18 04:00N 56°07' W 002°07'0 0.6
2018-Feb-18 03:30N 56°07' W 002°07'0 0.5
2018-Feb-18 03:00N 56°07' W 002°08'0 0.4
2018-Feb-18 02:30N 56°07' W 002°08'0 0.3
2018-Feb-18 02:00N 56°07' W 002°08'0 0.2
2018-Feb-18 01:30N 56°07' W 002°08'0 0.1
2018-Feb-18 01:00N 56°07' W 002°08'0 0.2
2018-Feb-18 00:30N 56°07' W 002°08'0 0.4
2018-Feb-18 00:00N 56°07' W 002°08'0 0.6
2018-Feb-17 23:30N 56°07' W 002°08'0 0.8
2018-Feb-17 23:00N 56°06' W 002°07'0 0.8
2018-Feb-17 22:30N 56°06' W 002°07'0 0.8
2018-Feb-17 22:00N 56°06' W 002°07'0 0.8
2018-Feb-17 21:30N 56°05' W 002°06'0 0.8
2018-Feb-17 21:00N 56°05' W 002°06'0 0.7
2018-Feb-17 20:30N 56°05' W 002°06'0 0.5
2018-Feb-17 20:00N 56°05' W 002°05'0 0.2
2018-Feb-17 19:30N 56°04' W 002°05'0 0.2
2018-Feb-17 19:00N 56°04' W 002°06'0 0.3
2018-Feb-17 18:30N 56°04' W 002°06'0 0.4
2018-Feb-17 18:00N 56°05' W 002°06'0 0.4
2018-Feb-17 17:30N 56°05' W 002°07'0 0.6
2018-Feb-17 17:00N 56°05' W 002°07'0 0.7
2018-Feb-17 16:30N 56°05' W 002°07'0 0.9
2018-Feb-17 16:00N 56°05' W 002°08'0 0.9
2018-Feb-17 15:30N 56°06' W 002°08'0 1.0
2018-Feb-17 15:00N 56°06' W 002°09'0 0.9
2018-Feb-17 14:30N 56°06' W 002°10'0 0.7
2018-Feb-17 14:00N 56°07' W 002°10'0 0.8
2018-Feb-17 13:30N 56°07' W 002°11'1 1.5
2018-Feb-17 13:00N 56°07' W 002°12'3 6.7
2018-Feb-17 12:30N 56°09' W 002°07'4 7.7
2018-Feb-17 12:00N 56°11' W 002°01'5 9.5
2018-Feb-17 11:30N 56°14' W 001°54'0 0.5
2018-Feb-17 11:00N 56°14' W 001°54'0 0.9
2018-Feb-17 10:30N 56°14' W 001°54'1 1.1
2018-Feb-17 10:00N 56°13' W 001°55'1 1.3
2018-Feb-17 09:30N 56°13' W 001°55'1 1.4
2018-Feb-17 09:00N 56°12' W 001°56'1 1.4
2018-Feb-17 08:30N 56°11' W 001°56'1 1.4
2018-Feb-17 08:00N 56°11' W 001°56'1 1.3
2018-Feb-17 07:30N 56°10' W 001°57'1 1.2
2018-Feb-17 07:00N 56°10' W 001°57'1 1.1
2018-Feb-17 06:30N 56°09' W 001°58'0 1.0
2018-Feb-17 06:00N 56°09' W 001°59'0 1.0
2018-Feb-17 05:30N 56°09' W 001°59'0 0.9
2018-Feb-17 05:00N 56°08' W 002°00'0 1.0
2018-Feb-17 04:30N 56°08' W 002°01'1 1.0
2018-Feb-17 04:00N 56°08' W 002°02'1 1.1
2018-Feb-17 03:30N 56°08' W 002°03'1 1.0
2018-Feb-17 03:00N 56°08' W 002°04'0 0.9
2018-Feb-17 02:30N 56°08' W 002°04'1 1.0
2018-Feb-17 02:00N 56°08' W 002°05'1 1.2
2018-Feb-17 01:30N 56°07' W 002°06'0 0.4
2018-Feb-17 01:00N 56°07' W 002°06'2 4.2
2018-Feb-17 00:30N 56°09' W 002°06'3 6.1
2018-Feb-17 00:00N 56°12' W 002°05'1 1.9
2018-Feb-16 23:30N 56°13' W 002°05'1 1.1
2018-Feb-16 23:00N 56°13' W 002°06'1 1.3
2018-Feb-16 22:30N 56°12' W 002°06'1 1.5
2018-Feb-16 22:00N 56°11' W 002°06'1 1.7
2018-Feb-16 21:30N 56°10' W 002°06'1 1.8
2018-Feb-16 21:00N 56°10' W 002°06'1 1.8
2018-Feb-16 20:30N 56°09' W 002°06'1 1.6
2018-Feb-16 20:00N 56°08' W 002°06'1 1.4
2018-Feb-16 19:30N 56°07' W 002°06'1 1.3
2018-Feb-16 19:00N 56°06' W 002°06'1 1.1
2018-Feb-16 18:30N 56°06' W 002°06'0 0.8
2018-Feb-16 18:00N 56°06' W 002°07'0 0.8
2018-Feb-16 17:30N 56°05' W 002°07'0 0.5
2018-Feb-16 17:00N 56°05' W 002°07'0 0.4
2018-Feb-16 16:30N 56°05' W 002°08'0 0.6
2018-Feb-16 16:00N 56°05' W 002°08'0 0.6
2018-Feb-16 15:30N 56°05' W 002°09'0 0.7
2018-Feb-16 15:00N 56°05' W 002°09'0 0.8
2018-Feb-16 14:30N 56°05' W 002°10'0 0.7
2018-Feb-16 14:00N 56°05' W 002°11'0 0.6
2018-Feb-16 13:30N 56°05' W 002°11'0 0.7
2018-Feb-16 13:00N 56°06' W 002°11'0 0.6
2018-Feb-16 12:30N 56°06' W 002°12'0 0.6
2018-Feb-16 12:00N 56°06' W 002°12'0 0.4
2018-Feb-16 11:30N 56°06' W 002°13'0 0.4
2018-Feb-16 11:00N 56°06' W 002°13'0 0.5
2018-Feb-16 10:30N 56°06' W 002°13'0 0.6
2018-Feb-16 10:00N 56°05' W 002°14'0 0.6
2018-Feb-16 09:30N 56°05' W 002°14'0 0.8
2018-Feb-16 09:00N 56°05' W 002°15'0 0.8
2018-Feb-16 08:30N 56°05' W 002°15'0 0.7
2018-Feb-16 08:00N 56°04' W 002°16'0 0.7
2018-Feb-16 07:30N 56°04' W 002°16'0 0.8
2018-Feb-16 07:00N 56°04' W 002°17'0 0.9
2018-Feb-16 06:30N 56°04' W 002°18'1 1.1
2018-Feb-16 06:00N 56°04' W 002°19'1 1.3
2018-Feb-16 05:30N 56°04' W 002°20'1 1.4
2018-Feb-16 05:00N 56°04' W 002°21'1 1.4
2018-Feb-16 04:30N 56°05' W 002°22'1 1.5
2018-Feb-16 04:00N 56°05' W 002°23'1 1.5
2018-Feb-16 03:30N 56°05' W 002°25'1 1.4
2018-Feb-16 03:00N 56°05' W 002°26'1 1.3
2018-Feb-16 02:30N 56°06' W 002°27'1 1.1
2018-Feb-16 02:00N 56°06' W 002°28'0 0.8
2018-Feb-16 01:30N 56°06' W 002°28'1 1.9
2018-Feb-16 01:00N 56°07' W 002°30'2 4.9
2018-Feb-16 00:30N 56°07' W 002°34'610.9
2018-Feb-16 00:00N 56°07' W 002°44'511.0
2018-Feb-15 23:30N 56°06' W 002°54'611.2
2018-Feb-15 23:00N 56°03' W 003°02'4 7.6
2018-Feb-15 22:30N 56°03' W 003°09'4 7.1
2018-Feb-15 22:00N 56°02' W 003°15'3 6.8
2018-Feb-15 21:30N 56°01' W 003°21'1 1.1
2018-Feb-15 21:00N 56°00' W 003°22'0 0.0
2018-Feb-15 20:28N 56°00' W 003°22'0 0.0
2018-Feb-15 19:58N 56°00' W 003°22'0 0.0
2018-Feb-15 19:28N 56°00' W 003°22'0 0.0
2018-Feb-15 16:43N 56°00' W 003°22'0 0.0
2018-Feb-15 16:25N 56°00' W 003°22'0 0.0
2018-Feb-15 16:00N 56°00' W 003°22'0 0.0
2018-Feb-15 15:24N 56°00' W 003°22'0 0.0
2018-Feb-15 13:42N 56°00' W 003°22'0 0.0
2018-Feb-15 13:27N 56°00' W 003°22'0 0.0
2018-Feb-15 12:54N 56°00' W 003°22'0 0.0
2018-Feb-15 12:24N 56°00' W 003°22'0 0.0
2018-Feb-15 11:18N 56°00' W 003°22'0 0.0
2018-Feb-15 10:48N 56°00' W 003°22'0 0.0
2018-Feb-15 10:24N 56°00' W 003°22'0 0.0
2018-Feb-15 09:54N 56°00' W 003°22'0 0.0
2018-Feb-15 09:30N 56°00' W 003°22'0 0.0
2018-Feb-15 09:00N 56°00' W 003°22'0 0.0
2018-Feb-15 08:12N 56°00' W 003°22'0 0.0
2018-Feb-15 07:06N 56°00' W 003°22'0 0.0
2018-Feb-15 07:00N 56°00' W 003°22'0 0.0
2018-Feb-15 06:18N 56°00' W 003°22'0 0.0
2018-Feb-15 06:00N 56°00' W 003°22'0 0.0
2018-Feb-15 05:24N 56°00' W 003°22'0 0.0
2018-Feb-15 04:36N 56°00' W 003°22'0 0.0
2018-Feb-15 04:24N 56°00' W 003°22'0 0.0
2018-Feb-15 04:00N 56°00' W 003°22'0 0.0
2018-Feb-15 03:30N 56°00' W 003°22'0 0.0
2018-Feb-15 02:48N 56°00' W 003°22'0 0.0
2018-Feb-15 02:30N 56°00' W 003°22'0 0.0
2018-Feb-15 01:48N 56°00' W 003°22'0 0.0
2018-Feb-15 01:21N 56°00' W 003°22'0 0.0
2018-Feb-15 00:54N 56°00' W 003°22'0 0.0
2018-Feb-15 00:06N 56°00' W 003°22'0 0.0
2018-Feb-14 21:27N 56°00' W 003°22'0 0.1
2018-Feb-14 21:01N 56°00' W 003°22'1 1.7
2018-Feb-14 20:31N 56°01' W 003°20'3 5.4
2018-Feb-14 20:00N 56°02' W 003°16'5 9.7
2018-Feb-14 19:31N 56°04' W 003°08'5 9.2
2018-Feb-14 19:01N 56°04' W 002°60'3 5.0
2018-Feb-14 18:30N 56°05' W 002°56'3 6.1
2018-Feb-14 18:01N 56°07' W 002°51'3 5.8
2018-Feb-14 17:31N 56°08' W 002°46'3 5.1
2018-Feb-14 17:01N 56°09' W 002°42'2 4.1
2018-Feb-14 16:31N 56°08' W 002°38'2 4.3
2018-Feb-14 16:01N 56°09' W 002°34'3 5.2
2018-Feb-14 15:31N 56°09' W 002°30'2 4.7
2018-Feb-14 15:01N 56°11' W 002°26'1 2.2
2018-Feb-14 14:31N 56°11' W 002°24'1 2.5
2018-Feb-14 14:00N 56°10' W 002°23'1 2.2
2018-Feb-14 13:31N 56°09' W 002°21'1 2.4
2018-Feb-14 13:01N 56°08' W 002°20'2 4.5
2018-Feb-14 12:31N 56°08' W 002°16'2 4.1
2018-Feb-14 12:01N 56°10' W 002°15'1 2.6
2018-Feb-14 11:31N 56°11' W 002°15'2 3.1
2018-Feb-14 11:00N 56°13' W 002°14'1 2.5
2018-Feb-14 10:30N 56°11' W 002°15'1 2.5
2018-Feb-14 10:01N 56°10' W 002°15'1 2.6
2018-Feb-14 09:30N 56°09' W 002°15'2 3.3
2018-Feb-14 09:01N 56°08' W 002°18'1 2.3
2018-Feb-14 08:31N 56°07' W 002°18'2 3.8
2018-Feb-14 08:01N 56°09' W 002°17'3 5.5
2018-Feb-14 07:31N 56°11' W 002°14'3 5.0
2018-Feb-14 07:00N 56°13' W 002°11'1 2.1
2018-Feb-14 06:30N 56°12' W 002°10'1 2.4
2018-Feb-14 06:01N 56°11' W 002°11'1 2.1
2018-Feb-14 05:31N 56°10' W 002°11'1 1.8
2018-Feb-14 05:01N 56°09' W 002°11'1 1.6
2018-Feb-14 04:30N 56°08' W 002°12'1 1.6
2018-Feb-14 04:01N 56°07' W 002°12'1 1.5
2018-Feb-14 03:31N 56°06' W 002°13'1 1.1
2018-Feb-14 03:01N 56°06' W 002°13'0 1.0
2018-Feb-14 02:30N 56°06' W 002°14'1 1.1
2018-Feb-14 02:01N 56°05' W 002°15'1 1.0
2018-Feb-14 01:30N 56°05' W 002°16'1 1.3
2018-Feb-14 01:01N 56°05' W 002°17'1 2.0
2018-Feb-14 00:31N 56°06' W 002°18'3 6.7
2018-Feb-14 00:01N 56°09' W 002°21'2 4.3
2018-Feb-13 23:30N 56°11' W 002°22'1 1.3
2018-Feb-13 23:01N 56°10' W 002°22'1 1.4
2018-Feb-13 22:30N 56°09' W 002°22'1 1.5
2018-Feb-13 22:01N 56°09' W 002°21'1 1.6
2018-Feb-13 21:30N 56°08' W 002°21'1 1.8
2018-Feb-13 21:01N 56°07' W 002°20'1 2.0
2018-Feb-13 20:31N 56°06' W 002°19'2 4.9
2018-Feb-13 20:00N 56°08' W 002°17'3 6.3
2018-Feb-13 19:30N 56°11' W 002°15'1 1.1
2018-Feb-13 19:01N 56°12' W 002°14'1 1.7
2018-Feb-13 18:31N 56°11' W 002°14'1 1.6
2018-Feb-13 18:00N 56°10' W 002°15'1 1.5
2018-Feb-13 17:31N 56°09' W 002°15'1 1.5
2018-Feb-13 17:00N 56°09' W 002°16'1 1.4
2018-Feb-13 16:30N 56°08' W 002°16'1 1.4
2018-Feb-13 16:01N 56°07' W 002°16'2 4.5
2018-Feb-13 15:31N 56°07' W 002°12'0 0.1
2018-Feb-13 15:01N 56°07' W 002°12'0 0.6
2018-Feb-13 14:31N 56°07' W 002°12'0 0.9
2018-Feb-13 14:01N 56°07' W 002°13'0 0.9
2018-Feb-13 13:30N 56°07' W 002°14'1 1.1
2018-Feb-13 13:01N 56°07' W 002°15'1 1.8
2018-Feb-13 12:31N 56°08' W 002°16'0 0.7
2018-Feb-13 12:01N 56°08' W 002°16'1 1.0
2018-Feb-13 11:30N 56°07' W 002°17'1 1.4
2018-Feb-13 11:01N 56°07' W 002°18'1 1.6
2018-Feb-13 10:31N 56°06' W 002°19'2 5.0
2018-Feb-13 10:00N 56°09' W 002°19'2 5.0
2018-Feb-13 09:30N 56°11' W 002°19'1 1.3
2018-Feb-13 09:00N 56°11' W 002°21'2 3.0
2018-Feb-13 08:31N 56°10' W 002°21'2 3.3
2018-Feb-13 08:00N 56°08' W 002°21'1 2.7
2018-Feb-13 07:31N 56°07' W 002°19'2 3.1
2018-Feb-13 07:01N 56°09' W 002°21'2 4.8
2018-Feb-13 06:31N 56°11' W 002°23'0 0.2
2018-Feb-13 06:00N 56°11' W 002°23'2 3.2
2018-Feb-13 05:31N 56°10' W 002°21'1 2.8
2018-Feb-13 05:00N 56°08' W 002°19'1 2.7
2018-Feb-13 04:31N 56°08' W 002°18'1 2.2
2018-Feb-13 04:00N 56°07' W 002°16'2 4.0
2018-Feb-13 03:31N 56°08' W 002°19'3 6.8
2018-Feb-13 03:00N 56°09' W 002°24'0 0.9
2018-Feb-13 02:31N 56°09' W 002°24'1 1.5
2018-Feb-13 02:00N 56°09' W 002°23'1 1.7
2018-Feb-13 01:30N 56°08' W 002°22'1 1.8
2018-Feb-13 01:01N 56°07' W 002°21'1 1.6
2018-Feb-13 00:31N 56°07' W 002°20'0 0.9
2018-Feb-13 00:00N 56°07' W 002°21'3 6.1
2018-Feb-12 23:31N 56°10' W 002°24'1 1.3
2018-Feb-12 23:01N 56°09' W 002°23'1 1.6
2018-Feb-12 22:30N 56°09' W 002°22'1 2.0
2018-Feb-12 22:01N 56°08' W 002°22'1 2.2
2018-Feb-12 21:31N 56°08' W 002°20'3 6.6
2018-Feb-12 21:01N 56°11' W 002°17'0 0.9
2018-Feb-12 20:31N 56°11' W 002°18'1 1.2
2018-Feb-12 20:01N 56°10' W 002°19'0 0.6
2018-Feb-12 19:30N 56°11' W 002°19'1 1.3
2018-Feb-12 19:01N 56°10' W 002°20'1 1.4
2018-Feb-12 18:30N 56°09' W 002°20'1 1.4
2018-Feb-12 18:01N 56°09' W 002°20'1 1.6
2018-Feb-12 17:31N 56°08' W 002°20'1 1.8
2018-Feb-12 17:01N 56°07' W 002°20'1 1.7
2018-Feb-12 16:31N 56°06' W 002°20'2 3.4
2018-Feb-12 16:00N 56°06' W 002°18'4 8.4
2018-Feb-12 15:31N 56°05' W 002°10'1 1.8
2018-Feb-12 15:01N 56°06' W 002°11'1 2.1
2018-Feb-12 14:31N 56°06' W 002°13'1 2.2
2018-Feb-12 14:01N 56°06' W 002°15'1 2.2
2018-Feb-12 13:31N 56°07' W 002°17'1 2.4
2018-Feb-12 13:01N 56°07' W 002°19'2 3.2
2018-Feb-12 12:30N 56°09' W 002°18'3 6.2
2018-Feb-12 12:01N 56°11' W 002°15'0 0.3
2018-Feb-12 11:30N 56°11' W 002°15'1 1.7
2018-Feb-12 11:00N 56°10' W 002°16'1 1.7
2018-Feb-12 10:30N 56°10' W 002°17'1 1.7
2018-Feb-12 10:01N 56°09' W 002°18'1 1.8
2018-Feb-12 09:31N 56°08' W 002°18'1 1.7
2018-Feb-12 09:01N 56°08' W 002°19'2 4.2
2018-Feb-12 08:30N 56°09' W 002°16'2 4.9
2018-Feb-12 08:01N 56°11' W 002°13'1 2.2
2018-Feb-12 07:31N 56°12' W 002°13'1 2.6
2018-Feb-12 07:00N 56°11' W 002°15'1 2.3
2018-Feb-12 06:31N 56°10' W 002°16'1 2.2
2018-Feb-12 06:01N 56°09' W 002°17'1 2.2
2018-Feb-12 05:30N 56°08' W 002°18'1 1.7
2018-Feb-12 05:00N 56°07' W 002°19'3 5.4
2018-Feb-12 04:30N 56°09' W 002°16'3 6.0
2018-Feb-12 04:01N 56°12' W 002°12'1 2.5
2018-Feb-12 03:30N 56°12' W 002°11'1 2.2
2018-Feb-12 03:00N 56°12' W 002°12'1 2.1
2018-Feb-12 02:30N 56°11' W 002°13'1 2.0
2018-Feb-12 02:01N 56°10' W 002°15'1 2.0
2018-Feb-12 01:30N 56°10' W 002°16'1 2.0
2018-Feb-12 01:01N 56°09' W 002°18'1 2.0
2018-Feb-12 00:30N 56°09' W 002°19'1 2.3
2018-Feb-12 00:01N 56°08' W 002°18'3 5.1
2018-Feb-11 23:31N 56°09' W 002°15'1 2.2
2018-Feb-11 23:00N 56°10' W 002°13'1 1.7
2018-Feb-11 22:31N 56°10' W 002°15'1 1.7
2018-Feb-11 22:00N 56°09' W 002°16'1 1.8
2018-Feb-11 21:30N 56°09' W 002°17'1 1.7
2018-Feb-11 21:01N 56°08' W 002°19'1 1.6
2018-Feb-11 20:30N 56°08' W 002°20'1 2.0
2018-Feb-11 20:00N 56°07' W 002°18'3 5.4
2018-Feb-11 19:31N 56°09' W 002°14'2 3.7
2018-Feb-11 19:00N 56°09' W 002°11'1 1.7
2018-Feb-11 18:31N 56°09' W 002°12'1 1.7
2018-Feb-11 18:01N 56°08' W 002°13'1 1.7
2018-Feb-11 17:31N 56°08' W 002°15'1 1.6
2018-Feb-11 17:00N 56°08' W 002°16'1 1.9
2018-Feb-11 16:30N 56°07' W 002°17'1 2.3
2018-Feb-11 16:01N 56°06' W 002°18'3 6.8
2018-Feb-11 15:30N 56°05' W 002°12'1 2.2
2018-Feb-11 15:00N 56°04' W 002°10'1 2.0
2018-Feb-11 14:30N 56°04' W 002°12'1 1.9
2018-Feb-11 14:00N 56°03' W 002°12'1 2.2
2018-Feb-11 13:30N 56°04' W 002°12'1 2.4
2018-Feb-11 13:00N 56°05' W 002°14'1 2.3
2018-Feb-11 12:30N 56°06' W 002°15'1 2.3
2018-Feb-11 12:01N 56°07' W 002°16'1 2.1
2018-Feb-11 11:30N 56°08' W 002°17'2 4.7
2018-Feb-11 11:01N 56°09' W 002°13'1 1.7
2018-Feb-11 10:30N 56°10' W 002°12'1 1.4
2018-Feb-11 10:01N 56°10' W 002°13'1 1.3
2018-Feb-11 09:31N 56°09' W 002°14'1 1.3
2018-Feb-11 09:00N 56°09' W 002°15'1 1.3
2018-Feb-11 08:30N 56°09' W 002°16'1 1.4
2018-Feb-11 08:01N 56°09' W 002°18'1 1.5
2018-Feb-11 07:30N 56°08' W 002°18'2 3.9
2018-Feb-11 07:00N 56°06' W 002°17'2 4.2
2018-Feb-11 06:30N 56°04' W 002°16'1 1.9
2018-Feb-11 06:01N 56°05' W 002°17'1 1.8
2018-Feb-11 05:31N 56°06' W 002°18'1 1.8
2018-Feb-11 05:00N 56°07' W 002°18'1 1.9
2018-Feb-11 04:30N 56°08' W 002°19'1 1.9
2018-Feb-11 04:01N 56°09' W 002°18'2 3.9
2018-Feb-11 03:30N 56°07' W 002°16'3 6.3
2018-Feb-11 03:01N 56°05' W 002°12'2 3.0
2018-Feb-11 02:30N 56°04' W 002°09'1 2.2
2018-Feb-11 02:01N 56°05' W 002°11'1 2.2
2018-Feb-11 01:31N 56°06' W 002°13'1 2.1
2018-Feb-11 01:00N 56°06' W 002°14'1 1.6
2018-Feb-11 00:31N 56°07' W 002°15'1 1.1
2018-Feb-11 00:01N 56°07' W 002°16'0 0.4
2018-Feb-10 23:30N 56°07' W 002°16'0 0.1
2018-Feb-10 23:00N 56°07' W 002°16'0 0.2
2018-Feb-10 22:31N 56°07' W 002°16'0 0.3
2018-Feb-10 22:01N 56°07' W 002°16'0 0.3
2018-Feb-10 21:30N 56°07' W 002°15'0 0.5
2018-Feb-10 21:01N 56°07' W 002°15'0 0.6
2018-Feb-10 20:31N 56°07' W 002°15'0 0.7
2018-Feb-10 20:01N 56°06' W 002°15'0 0.6
2018-Feb-10 19:31N 56°06' W 002°15'0 0.9
2018-Feb-10 19:01N 56°06' W 002°14'0 0.9
2018-Feb-10 18:31N 56°05' W 002°13'0 0.8
2018-Feb-10 18:00N 56°05' W 002°13'0 0.6
2018-Feb-10 17:31N 56°05' W 002°13'0 0.2
2018-Feb-10 17:01N 56°05' W 002°13'0 0.4
2018-Feb-10 16:31N 56°05' W 002°13'0 0.5
2018-Feb-10 16:01N 56°05' W 002°14'0 0.7
2018-Feb-10 15:30N 56°05' W 002°14'1 1.2
2018-Feb-10 15:00N 56°06' W 002°15'1 1.1
2018-Feb-10 14:31N 56°06' W 002°16'1 1.0
2018-Feb-10 14:01N 56°06' W 002°17'1 1.2
2018-Feb-10 13:30N 56°06' W 002°18'0 1.0
2018-Feb-10 13:01N 56°06' W 002°19'1 1.5
2018-Feb-10 12:31N 56°07' W 002°19'3 5.4
2018-Feb-10 12:01N 56°10' W 002°18'3 6.1
2018-Feb-10 11:31N 56°12' W 002°14'0 0.9
2018-Feb-10 11:01N 56°12' W 002°14'1 1.3
2018-Feb-10 10:31N 56°11' W 002°15'1 1.4
2018-Feb-10 10:00N 56°11' W 002°15'1 1.6
2018-Feb-10 09:31N 56°10' W 002°16'1 1.7
2018-Feb-10 09:01N 56°09' W 002°17'1 1.7
2018-Feb-10 08:30N 56°09' W 002°18'1 2.8
2018-Feb-10 08:01N 56°10' W 002°20'1 1.1
2018-Feb-10 07:31N 56°10' W 002°21'1 1.9
2018-Feb-10 07:00N 56°09' W 002°20'1 2.0
2018-Feb-10 06:31N 56°08' W 002°19'1 1.9
2018-Feb-10 06:01N 56°07' W 002°18'0 0.6
2018-Feb-10 05:30N 56°08' W 002°17'2 4.3
2018-Feb-10 05:01N 56°10' W 002°17'1 2.7
2018-Feb-10 04:31N 56°11' W 002°18'1 2.7
2018-Feb-10 04:00N 56°10' W 002°17'1 2.2
2018-Feb-10 03:31N 56°09' W 002°17'1 1.8
2018-Feb-10 03:01N 56°08' W 002°16'1 1.4
2018-Feb-10 02:31N 56°07' W 002°16'1 1.4
2018-Feb-10 02:01N 56°07' W 002°15'2 3.5
2018-Feb-10 01:30N 56°07' W 002°12'1 1.4
2018-Feb-10 01:00N 56°07' W 002°11'1 1.6
2018-Feb-10 00:31N 56°07' W 002°12'1 1.5
2018-Feb-10 00:00N 56°07' W 002°14'1 1.4
2018-Feb-09 23:30N 56°07' W 002°15'1 1.6
2018-Feb-09 23:00N 56°07' W 002°16'0 1.6
2018-Feb-09 22:46N 56°07' W 002°17'0 1.7
2018-Feb-09 22:31N 56°07' W 002°17'2 1.7
2018-Feb-09 21:31N 56°08' W 002°20'1 1.5
2018-Feb-09 20:31N 56°09' W 002°22'1 1.8
2018-Feb-09 20:01N 56°10' W 002°24'3 1.2
2018-Feb-09 17:01N 56°07' W 002°28'3 1.0
2018-Feb-09 13:31N 56°05' W 002°33'3 6.4
2018-Feb-09 13:01N 56°05' W 002°27'1111.4
2018-Feb-09 12:01N 56°03' W 002°07'  

Dump ship's entire track history